Time;durP1;ratioP1;P1;durP2;ratioP2;P2;SDS_P1;SDS_P2;PMS_P1;PMS_P2;Temp;Humidity;BMP_temperature;BMP_pressure;BME280_temperature;BME280_humidity;BME280_pressure;Samples;Min_cycle;Max_cycle;Signal;HPM_P1;HPM_P2
2021/03/12 00:01:12;;;;;;;16.17;2.17;;;;;;;;;;5070111;28;20024;-58
2021/03/12 00:03:37;;;;;;;13.70;3.17;;;;;;;;;;5069217;28;20595;-58
2021/03/12 00:06:07;;;;;;;9.13;2.20;;;;;;;;;;5052107;28;20032;-57
2021/03/12 00:08:43;;;;;;;16.90;2.97;;;;;;;;;;5051168;28;20028;-58
2021/03/12 00:11:09;;;;;;;13.88;2.72;;;;;;;;;;5069998;28;20040;-58
2021/03/12 00:13:34;;;;;;;17.92;2.78;;;;;;;;;;5069389;28;20032;-58
2021/03/12 00:16:00;;;;;;;21.37;3.43;;;;;;;;;;5070091;28;20020;-58
2021/03/12 00:18:27;;;;;;;22.75;2.63;;;;;;;;;;5069302;28;20121;-57
2021/03/12 00:20:53;;;;;;;11.75;2.35;;;;;;;;;;5069935;28;20081;-59
2021/03/12 00:23:19;;;;;;;14.52;2.85;;;;;;;;;;5035519;28;20037;-57
2021/03/12 00:25:45;;;;;;;15.77;3.17;;;;;;;;;;5033607;28;20036;-57
2021/03/12 00:28:12;;;;;;;9.10;2.15;;;;;;;;;;5069783;28;20032;-58
2021/03/12 00:30:39;;;;;;;9.93;2.20;;;;;;;;;;5051530;28;20426;-59
2021/03/12 00:33:05;;;;;;;16.10;2.78;;;;;;;;;;5051806;28;20705;-59
2021/03/12 00:35:32;;;;;;;18.02;4.05;;;;;;;;;;5069386;28;20029;-58
2021/03/12 00:37:57;;;;;;;13.48;3.17;;;;;;;;;;5070222;28;20035;-58
2021/03/12 00:40:28;;;;;;;21.40;3.87;;;;;;;;;;5051798;28;20123;-59
2021/03/12 00:42:54;;;;;;;15.55;3.88;;;;;;;;;;5076675;28;20416;-58
2021/03/12 00:45:21;;;;;;;14.10;3.28;;;;;;;;;;5034842;28;20025;-58
2021/03/12 00:47:51;;;;;;;21.90;3.90;;;;;;;;;;5051006;28;20427;-58
2021/03/12 00:50:20;;;;;;;12.00;3.50;;;;;;;;;;5051514;28;20083;-58
2021/03/12 00:52:46;;;;;;;13.50;3.97;;;;;;;;;;5050538;28;20533;-58
2021/03/12 00:55:11;;;;;;;11.80;4.07;;;;;;;;;;5051983;28;20040;-58
2021/03/12 00:57:42;;;;;;;21.15;3.30;;;;;;;;;;5051941;28;20025;-58
2021/03/12 01:00:08;;;;;;;15.50;4.20;;;;;;;;;;5051409;28;20421;-58
2021/03/12 01:02:37;;;;;;;15.38;2.92;;;;;;;;;;5069839;28;20029;-59
2021/03/12 01:05:04;;;;;;;20.63;4.23;;;;;;;;;;5038820;28;20564;-58
2021/03/12 01:07:30;;;;;;;14.07;2.92;;;;;;;;;;5054261;28;20033;-60
2021/03/12 01:09:55;;;;;;;24.77;4.23;;;;;;;;;;5054780;28;20105;-59
2021/03/12 01:12:22;;;;;;;19.13;5.60;;;;;;;;;;5052535;28;20124;-58
2021/03/12 01:14:48;;;;;;;8.82;2.40;;;;;;;;;;5054546;28;20027;-58
2021/03/12 01:17:13;;;;;;;25.87;4.60;;;;;;;;;;5055099;28;20032;-58
2021/03/12 01:19:39;;;;;;;13.87;2.73;;;;;;;;;;5054599;28;20437;-58
2021/03/12 01:22:07;;;;;;;20.48;3.72;;;;;;;;;;5055417;28;20079;-58
2021/03/12 01:24:34;;;;;;;16.05;3.47;;;;;;;;;;5056944;28;20101;-57
2021/03/12 01:27:04;;;;;;;16.13;2.47;;;;;;;;;;5035462;28;20037;-59
2021/03/12 01:29:30;;;;;;;17.38;3.03;;;;;;;;;;5038229;28;20028;-58
2021/03/12 01:32:07;;;;;;;22.40;4.07;;;;;;;;;;5052966;28;20233;-58
2021/03/12 01:34:38;;;;;;;24.17;5.65;;;;;;;;;;5054995;28;20037;-58
2021/03/12 01:37:05;;;;;;;18.10;3.72;;;;;;;;;;5039620;28;20106;-59
2021/03/12 01:39:36;;;;;;;28.27;5.68;;;;;;;;;;5055478;28;20041;-57
2021/03/12 01:42:02;;;;;;;22.73;4.57;;;;;;;;;;5055487;28;20056;-58
2021/03/12 01:44:33;;;;;;;19.67;4.53;;;;;;;;;;5072276;28;20441;-56
2021/03/12 01:46:59;;;;;;;19.83;4.70;;;;;;;;;;5072791;28;20060;-57
2021/03/12 01:49:25;;;;;;;;;;;;;;;;;;5055151;28;20487;-57
2021/03/12 01:51:51;;;;;;;16.37;4.37;;;;;;;;;;5053939;28;19908;-57
2021/03/12 01:54:16;;;;;;;26.95;7.57;;;;;;;;;;5054701;28;20033;-58
2021/03/12 01:56:45;;;;;;;25.05;6.18;;;;;;;;;;5053914;28;20392;-59
2021/03/12 01:59:25;;;;;;;13.40;3.40;;;;;;;;;;5052399;28;20103;-58
2021/03/12 02:01:59;;;;;;;13.73;3.70;;;;;;;;;;5054496;28;20036;-59
2021/03/12 02:04:40;;;;;;;18.75;3.90;;;;;;;;;;5053574;28;20131;-58
2021/03/12 02:07:10;;;;;;;17.48;3.95;;;;;;;;;;5072428;28;20021;-58
2021/03/12 02:09:55;;;;;;;30.45;4.95;;;;;;;;;;5078704;28;20078;-59
2021/03/12 02:12:34;;;;;;;23.20;4.37;;;;;;;;;;5072302;28;20036;-58
2021/03/12 02:15:08;;;;;;;13.57;3.83;;;;;;;;;;5036743;28;20096;-59
2021/03/12 02:17:55;;;;;;;22.73;3.17;;;;;;;;;;5053156;28;20435;-59
2021/03/12 02:20:26;;;;;;;22.05;3.92;;;;;;;;;;5053819;28;20528;-59
2021/03/12 02:23:00;;;;;;;20.35;4.32;;;;;;;;;;5053797;28;20054;-58
2021/03/12 02:25:27;;;;;;;17.90;3.35;;;;;;;;;;5051257;28;20074;-58
2021/03/12 02:28:00;;;;;;;18.08;2.63;;;;;;;;;;5053853;28;20027;-58
2021/03/12 02:30:26;;;;;;;13.90;2.20;;;;;;;;;;5053867;28;20380;-57
2021/03/12 02:32:53;;;;;;;15.20;3.15;;;;;;;;;;5053210;28;20074;-59
2021/03/12 02:35:32;;;;;;;13.07;3.10;;;;;;;;;;5078522;28;20032;-58
2021/03/12 02:38:09;;;;;;;19.10;3.03;;;;;;;;;;5037492;28;20037;-58
2021/03/12 02:40:35;;;;;;;20.75;4.30;;;;;;;;;;5054834;28;20117;-58
2021/03/12 02:43:04;;;;;;;18.83;3.65;;;;;;;;;;5071976;28;20052;-58
2021/03/12 02:45:30;;;;;;;14.35;2.22;;;;;;;;;;5053343;28;20028;-59
2021/03/12 02:48:11;;;;;;;18.35;2.95;;;;;;;;;;5070781;28;20108;-59
2021/03/12 02:50:40;;;;;;;15.10;4.00;;;;;;;;;;5034222;28;20082;-59
2021/03/12 02:53:09;;;;;;;22.95;3.83;;;;;;;;;;5046826;28;20057;-59
2021/03/12 02:55:35;;;;;;;;;;;;;;;;;;5069776;28;20082;-57
2021/03/12 02:58:03;;;;;;;20.30;3.75;;;;;;;;;;5053749;28;20420;-58
2021/03/12 03:00:29;;;;;;;26.55;5.47;;;;;;;;;;5071318;28;20486;-59
2021/03/12 03:03:09;;;;;;;13.80;3.58;;;;;;;;;;5068506;28;20036;-58
2021/03/12 03:05:43;;;;;;;19.92;4.53;;;;;;;;;;5067103;28;20402;-58
2021/03/12 03:08:10;;;;;;;19.13;2.85;;;;;;;;;;5070957;28;20029;-58
2021/03/12 03:10:36;;;;;;;15.43;2.40;;;;;;;;;;5070410;28;20081;-59
2021/03/12 03:13:02;;;;;;;9.35;2.63;;;;;;;;;;5053198;28;20028;-58
2021/03/12 03:15:28;;;;;;;13.95;2.47;;;;;;;;;;5069674;28;20119;-59
2021/03/12 03:17:54;;;;;;;14.90;2.53;;;;;;;;;;5069477;28;20046;-58
2021/03/12 03:20:25;;;;;;;21.08;2.63;;;;;;;;;;5071445;28;20039;-58
2021/03/12 03:22:52;;;;;;;20.73;4.03;;;;;;;;;;5053285;28;20044;-60
2021/03/12 03:25:18;;;;;;;19.20;3.07;;;;;;;;;;5071544;28;20429;-61
2021/03/12 03:27:44;;;;;;;20.42;3.08;;;;;;;;;;5069816;28;20141;-59
2021/03/12 03:30:12;;;;;;;14.20;3.20;;;;;;;;;;5071478;28;20043;-58
2021/03/12 03:32:39;;;;;;;15.02;1.92;;;;;;;;;;5067676;28;20745;-58
2021/03/12 03:35:05;;;;;;;9.07;1.90;;;;;;;;;;5069947;28;20040;-58
2021/03/12 03:37:32;;;;;;;19.20;2.42;;;;;;;;;;5070920;28;20480;-60
2021/03/12 03:39:59;;;;;;;11.30;2.40;;;;;;;;;;5069268;28;20037;-58
2021/03/12 03:42:25;;;;;;;15.80;2.97;;;;;;;;;;5054869;28;20038;-59
2021/03/12 03:44:52;;;;;;;12.77;2.78;;;;;;;;;;5070518;28;20119;-58
2021/03/12 03:47:18;;;;;;;13.88;2.75;;;;;;;;;;5033182;28;20032;-58
2021/03/12 03:49:44;;;;;;;12.23;3.33;;;;;;;;;;5068429;28;20036;-59
2021/03/12 03:52:10;;;;;;;15.85;2.50;;;;;;;;;;5068972;28;20059;-59
2021/03/12 03:54:46;;;;;;;21.73;4.22;;;;;;;;;;5067110;28;20040;-59
2021/03/12 03:57:15;;;;;;;9.75;1.73;;;;;;;;;;5068696;28;20029;-59
2021/03/12 03:59:41;;;;;;;19.88;2.30;;;;;;;;;;5068309;28;20081;-59
2021/03/12 04:02:09;;;;;;;5.78;2.05;;;;;;;;;;5051142;28;20040;-58
2021/03/12 04:04:35;;;;;;;12.07;1.77;;;;;;;;;;5068153;28;20074;-57
2021/03/12 04:07:01;;;;;;;21.23;2.45;;;;;;;;;;5070391;28;20448;-58
2021/03/12 04:09:27;;;;;;;18.88;2.90;;;;;;;;;;5070239;28;20181;-58
2021/03/12 04:11:54;;;;;;;15.90;3.97;;;;;;;;;;5068208;28;20028;-59
2021/03/12 04:14:24;;;;;;;18.02;2.85;;;;;;;;;;5068919;28;20484;-58
2021/03/12 04:16:52;;;;;;;15.93;2.78;;;;;;;;;;5069803;28;20029;-58
2021/03/12 04:19:18;;;;;;;13.65;2.38;;;;;;;;;;5067489;28;20115;-59
2021/03/12 04:21:44;;;;;;;20.08;3.45;;;;;;;;;;5068402;28;20128;-58
2021/03/12 04:24:12;;;;;;;16.63;2.08;;;;;;;;;;5068543;28;20042;-59
2021/03/12 04:26:38;;;;;;;14.73;2.13;;;;;;;;;;5066637;28;20119;-59
2021/03/12 04:29:04;;;;;;;12.73;2.10;;;;;;;;;;5068372;28;20068;-58
2021/03/12 04:31:33;;;;;;;12.38;2.58;;;;;;;;;;5068540;28;20069;-58
2021/03/12 04:34:01;;;;;;;13.65;2.00;;;;;;;;;;5068357;28;20460;-59
2021/03/12 04:36:27;;;;;;;10.48;1.73;;;;;;;;;;5068565;28;20025;-58
2021/03/12 04:38:53;;;;;;;14.15;2.55;;;;;;;;;;5071492;28;20032;-59
2021/03/12 04:41:19;;;;;;;13.07;2.33;;;;;;;;;;5072417;28;20032;-57
2021/03/12 04:43:45;;;;;;;17.30;2.63;;;;;;;;;;5073449;28;20074;-59
2021/03/12 04:46:12;;;;;;;;;;;;;;;;;;5074292;28;20025;-57
2021/03/12 04:48:42;;;;;;;21.30;2.80;;;;;;;;;;5055902;28;19912;-59
2021/03/12 04:51:10;;;;;;;14.43;2.35;;;;;;;;;;5072450;28;20028;-58
2021/03/12 04:53:37;;;;;;;13.15;2.53;;;;;;;;;;5058234;28;20052;-59
2021/03/12 04:56:04;;;;;;;13.68;2.13;;;;;;;;;;5055403;28;20039;-58
2021/03/12 04:58:32;;;;;;;11.23;2.70;;;;;;;;;;5055584;28;20036;-58
2021/03/12 05:00:58;;;;;;;11.27;2.13;;;;;;;;;;5033077;28;20112;-57
2021/03/12 05:03:24;;;;;;;18.60;2.30;;;;;;;;;;5055537;28;20617;-58
2021/03/12 05:05:51;;;;;;;12.38;2.38;;;;;;;;;;5072786;28;20345;-59
2021/03/12 05:08:19;;;;;;;16.48;2.58;;;;;;;;;;5055380;28;20469;-58
2021/03/12 05:10:54;;;;;;;14.50;2.88;;;;;;;;;;5054634;28;20170;-60
2021/03/12 05:13:20;;;;;;;21.03;2.93;;;;;;;;;;5055308;28;20520;-58
2021/03/12 05:15:45;;;;;;;9.27;1.60;;;;;;;;;;5054712;28;20046;-58
2021/03/12 05:18:11;;;;;;;12.63;2.37;;;;;;;;;;5055340;28;20135;-59
2021/03/12 05:20:38;;;;;;;16.75;2.30;;;;;;;;;;5054897;28;20384;-59
2021/03/12 05:23:04;;;;;;;14.93;2.78;;;;;;;;;;5054901;28;20021;-59
2021/03/12 05:25:29;;;;;;;12.10;1.70;;;;;;;;;;5055010;28;20037;-59
2021/03/12 05:27:55;;;;;;;17.67;3.00;;;;;;;;;;5054621;28;20036;-59
2021/03/12 05:30:21;;;;;;;13.57;2.20;;;;;;;;;;5038338;28;20039;-59
2021/03/12 05:32:51;;;;;;;17.25;2.15;;;;;;;;;;5054030;28;20025;-59
2021/03/12 05:35:16;;;;;;;12.73;2.20;;;;;;;;;;5072965;28;20028;-59
2021/03/12 05:37:42;;;;;;;9.83;2.00;;;;;;;;;;5054352;28;20040;-59
2021/03/12 05:40:07;;;;;;;20.73;4.27;;;;;;;;;;5049298;28;20035;-59
2021/03/12 05:42:38;;;;;;;21.23;4.43;;;;;;;;;;5054365;28;20029;-57
2021/03/12 05:45:03;;;;;;;17.30;2.67;;;;;;;;;;5072111;28;20071;-59
2021/03/12 05:47:36;;;;;;;11.48;2.40;;;;;;;;;;5054456;28;20513;-59
2021/03/12 05:50:05;;;;;;;15.30;2.40;;;;;;;;;;5053898;28;20028;-59
2021/03/12 05:52:32;;;;;;;24.08;2.92;;;;;;;;;;5079918;28;20059;-59
2021/03/12 05:54:59;;;;;;;15.05;2.92;;;;;;;;;;5070372;28;20032;-59
2021/03/12 05:57:24;;;;;;;11.20;2.95;;;;;;;;;;5071235;28;20073;-59
2021/03/12 05:59:51;;;;;;;20.58;3.25;;;;;;;;;;5070569;28;20040;-59
2021/03/12 06:02:17;;;;;;;19.77;3.03;;;;;;;;;;5068293;28;20021;-58
2021/03/12 06:04:46;;;;;;;19.15;4.55;;;;;;;;;;5071699;28;20466;-59
2021/03/12 06:07:16;;;;;;;22.90;3.95;;;;;;;;;;5071040;28;20047;-58
2021/03/12 06:09:45;;;;;;;21.75;3.88;;;;;;;;;;5070266;28;20032;-59
2021/03/12 06:12:11;;;;;;;9.43;2.75;;;;;;;;;;5072307;28;20103;-59
2021/03/12 06:14:54;;;;;;;19.95;3.58;;;;;;;;;;5069635;28;20468;-59
2021/03/12 06:17:46;;;;;;;16.05;3.70;;;;;;;;;;5066600;28;20056;-59
2021/03/12 06:20:33;;;;;;;15.25;3.45;;;;;;;;;;5069755;28;20032;-59
2021/03/12 06:22:59;;;;;;;17.17;3.30;;;;;;;;;;5050828;28;20041;-59
2021/03/12 06:25:31;;;;;;;18.05;3.15;;;;;;;;;;5070630;28;20082;-58
2021/03/12 06:28:02;;;;;;;;;;;;;;;;;;5068978;28;20040;-58
2021/03/12 06:30:36;;;;;;;15.57;3.47;;;;;;;;;;5055049;28;19908;-58
2021/03/12 06:33:32;;;;;;;17.58;2.80;;;;;;;;;;5057486;28;20384;-59
2021/03/12 06:36:29;;;;;;;11.27;2.97;;;;;;;;;;5070079;28;20028;-59
2021/03/12 06:39:30;;;;;;;16.52;3.13;;;;;;;;;;5072041;28;20083;-58
2021/03/12 06:42:08;;;;;;;16.23;3.17;;;;;;;;;;5055591;28;20126;-59
2021/03/12 06:44:37;;;;;;;16.33;3.13;;;;;;;;;;5071653;28;20123;-59
2021/03/12 06:47:12;;;;;;;14.95;5.13;;;;;;;;;;5071817;28;20132;-58
2021/03/12 06:49:51;;;;;;;22.00;4.53;;;;;;;;;;5071125;28;20529;-60
2021/03/12 06:52:30;;;;;;;14.27;3.10;;;;;;;;;;5071641;28;20056;-58
2021/03/12 06:54:56;;;;;;;17.85;3.80;;;;;;;;;;5054698;28;20063;-58
2021/03/12 06:57:39;;;;;;;13.35;3.72;;;;;;;;;;5042660;28;20177;-58
2021/03/12 07:00:30;;;;;;;18.13;3.78;;;;;;;;;;5044651;28;20082;-59
2021/03/12 07:02:56;;;;;;;17.52;3.03;;;;;;;;;;5054833;28;20435;-59
2021/03/12 07:05:51;;;;;;;21.48;3.67;;;;;;;;;;5054978;28;20400;-59
2021/03/12 07:08:34;;;;;;;18.65;3.80;;;;;;;;;;5039437;28;20078;-59
2021/03/12 07:11:27;;;;;;;19.98;3.33;;;;;;;;;;5068856;28;20048;-58
2021/03/12 07:14:25;;;;;;;25.83;5.30;;;;;;;;;;5032936;28;20111;-59
2021/03/12 07:16:52;;;;;;;21.92;4.63;;;;;;;;;;5037484;28;20025;-58
2021/03/12 07:19:22;;;;;;;20.58;4.53;;;;;;;;;;5037882;28;20445;-60
2021/03/12 07:21:49;;;;;;;16.88;2.75;;;;;;;;;;5053601;28;20082;-59
2021/03/12 07:24:16;;;;;;;24.73;5.03;;;;;;;;;;5054272;28;20189;-59
2021/03/12 07:26:42;;;;;;;25.95;3.35;;;;;;;;;;5053937;28;20285;-59
2021/03/12 07:29:10;;;;;;;24.50;4.72;;;;;;;;;;5053637;28;20037;-59
2021/03/12 07:31:59;;;;;;;12.90;2.72;;;;;;;;;;5060333;28;20115;-59
2021/03/12 07:34:32;;;;;;;27.15;3.80;;;;;;;;;;5053735;28;20035;-58
2021/03/12 07:37:06;;;;;;;13.20;3.47;;;;;;;;;;5053547;28;20036;-59
2021/03/12 07:39:43;;;;;;;23.67;3.38;;;;;;;;;;5054318;28;20074;-58
2021/03/12 07:42:17;;;;;;;24.05;3.83;;;;;;;;;;5052781;28;20044;-58
2021/03/12 07:45:10;;;;;;;17.10;3.03;;;;;;;;;;5032447;28;20128;-59
2021/03/12 07:47:54;;;;;;;21.95;2.80;;;;;;;;;;5071132;28;20048;-58
2021/03/12 07:50:29;;;;;;;14.55;3.00;;;;;;;;;;5053859;28;20036;-58
2021/03/12 07:53:00;;;;;;;24.63;4.10;;;;;;;;;;5057309;28;20349;-60
2021/03/12 07:55:37;;;;;;;20.27;3.72;;;;;;;;;;5070446;28;20032;-58
2021/03/12 07:58:08;;;;;;;21.88;4.03;;;;;;;;;;5070139;28;20478;-59
2021/03/12 08:00:56;;;;;;;21.45;3.20;;;;;;;;;;5054431;28;20041;-58
2021/03/12 08:03:31;;;;;;;26.27;3.60;;;;;;;;;;5052925;28;20044;-58
2021/03/12 08:06:29;;;;;;;20.10;4.32;;;;;;;;;;5031941;28;20040;-59
2021/03/12 08:09:24;;;;;;;23.70;3.45;;;;;;;;;;5053457;28;20032;-59
2021/03/12 08:12:05;;;;;;;35.92;5.28;;;;;;;;;;5050744;28;20521;-58
2021/03/12 08:15:08;;;;;;;19.92;2.60;;;;;;;;;;5069657;28;20480;-59
2021/03/12 08:17:34;;;;;;;23.23;2.83;;;;;;;;;;5050349;28;20031;-58
2021/03/12 08:20:24;;;;;;;22.38;3.40;;;;;;;;;;5039103;28;20037;-59
2021/03/12 08:23:14;;;;;;;18.80;3.90;;;;;;;;;;5058276;28;20029;-58
2021/03/12 08:25:44;;;;;;;13.32;2.83;;;;;;;;;;5060430;28;20112;-58
2021/03/12 08:28:24;;;;;;;20.27;3.20;;;;;;;;;;5053259;28;20052;-59
2021/03/12 08:30:55;;;;;;;28.15;4.50;;;;;;;;;;5060041;28;20091;-59
2021/03/12 08:33:45;;;;;;;26.02;5.43;;;;;;;;;;5057746;28;20028;-59
2021/03/12 08:36:40;;;;;;;16.17;3.92;;;;;;;;;;5045334;28;20048;-58
2021/03/12 08:39:27;;;;;;;27.63;4.88;;;;;;;;;;5069348;28;20473;-58
2021/03/12 08:42:14;;;;;;;22.65;3.40;;;;;;;;;;5069003;28;20043;-58
2021/03/12 08:44:56;;;;;;;20.70;4.13;;;;;;;;;;5051878;28;20040;-59
2021/03/12 08:47:27;;;;;;;20.55;3.10;;;;;;;;;;5061580;28;20370;-59
2021/03/12 08:49:55;;;;;;;28.08;4.18;;;;;;;;;;5068656;28;20029;-58
2021/03/12 08:52:27;;;;;;;18.80;4.75;;;;;;;;;;5069784;28;20051;-58
2021/03/12 08:55:05;;;;;;;25.30;5.50;;;;;;;;;;5052641;28;20385;-58
2021/03/12 08:57:33;;;;;;;19.13;4.00;;;;;;;;;;5036528;28;20480;-58
2021/03/12 09:00:15;;;;;;;31.60;5.68;;;;;;;;;;5032563;28;20025;-59
2021/03/12 09:03:13;;;;;;;38.90;5.70;;;;;;;;;;5058770;28;20053;-59
2021/03/12 09:05:39;;;;;;;18.38;3.72;;;;;;;;;;5052702;28;20506;-58
2021/03/12 09:08:24;;;;;;;26.60;5.30;;;;;;;;;;5055014;28;20123;-59
2021/03/12 09:11:11;;;;;;;23.00;5.38;;;;;;;;;;5055215;28;20234;-58
2021/03/12 09:13:49;;;;;;;26.33;4.40;;;;;;;;;;5052526;28;20033;-58
2021/03/12 09:16:16;;;;;;;23.88;4.03;;;;;;;;;;5035443;28;20390;-59
2021/03/12 09:18:45;;;;;;;14.82;4.40;;;;;;;;;;5033223;28;20106;-59
2021/03/12 09:21:20;;;;;;;18.67;3.58;;;;;;;;;;5051918;28;20036;-58
2021/03/12 09:23:50;;;;;;;29.17;4.95;;;;;;;;;;5053907;28;20028;-58
2021/03/12 09:26:21;;;;;;;20.08;4.55;;;;;;;;;;5039040;28;20029;-58
2021/03/12 09:28:56;;;;;;;22.90;5.70;;;;;;;;;;5062229;28;20037;-58
2021/03/12 09:31:30;;;;;;;20.92;3.65;;;;;;;;;;5055949;28;20072;-58
2021/03/12 09:34:00;;;;;;;;;;;;;;;;;;5054189;28;20025;-58
2021/03/12 09:36:46;;;;;;;21.70;4.65;;;;;;;;;;5071317;28;19970;-59
2021/03/12 09:39:39;;;;;;;24.55;4.50;;;;;;;;;;5061146;28;20082;-59
2021/03/12 09:42:11;;;;;;;25.52;4.10;;;;;;;;;;5071200;28;20036;-59
2021/03/12 09:44:47;;;;;;;22.92;3.90;;;;;;;;;;5056337;28;20025;-59
2021/03/12 09:47:19;;;;;;;20.77;5.45;;;;;;;;;;5055929;28;20037;-58
2021/03/12 09:50:01;;;;;;;35.00;5.32;;;;;;;;;;5041225;28;20032;-58
2021/03/12 09:52:40;;;;;;;20.70;4.05;;;;;;;;;;5057542;28;20040;-58
2021/03/12 09:55:19;;;;;;;25.17;4.93;;;;;;;;;;5072005;28;20048;-59
2021/03/12 09:57:46;;;;;;;21.48;5.45;;;;;;;;;;5072403;28;20036;-58
2021/03/12 10:00:24;;;;;;;29.98;4.97;;;;;;;;;;5071046;28;20124;-59
2021/03/12 10:02:57;;;;;;;23.95;6.43;;;;;;;;;;5069485;28;20071;-58
2021/03/12 10:05:33;;;;;;;16.58;4.35;;;;;;;;;;5057397;28;20060;-58
2021/03/12 10:08:24;;;;;;;31.27;4.53;;;;;;;;;;5066819;28;20487;-58
2021/03/12 10:11:04;;;;;;;31.83;5.53;;;;;;;;;;5072197;28;20028;-57
2021/03/12 10:13:32;;;;;;;24.95;6.00;;;;;;;;;;5070859;28;20079;-58
2021/03/12 10:16:13;;;;;;;27.65;7.03;;;;;;;;;;5070920;28;20037;-58
2021/03/12 10:18:59;;;;;;;29.33;5.32;;;;;;;;;;5058000;28;20080;-57
2021/03/12 10:21:24;;;;;;;24.00;5.70;;;;;;;;;;5071226;28;20079;-57
2021/03/12 10:23:50;;;;;;;28.23;5.97;;;;;;;;;;5073590;28;20033;-57
2021/03/12 10:26:15;;;;;;;18.65;3.80;;;;;;;;;;5072864;28;20037;-58
2021/03/12 10:28:45;;;;;;;21.57;4.87;;;;;;;;;;5056744;28;20544;-57
2021/03/12 10:31:11;;;;;;;32.47;5.38;;;;;;;;;;5068185;28;20567;-59
2021/03/12 10:33:36;;;;;;;21.53;5.37;;;;;;;;;;5064740;28;20071;-56
2021/03/12 10:36:05;;;;;;;25.35;4.90;;;;;;;;;;5071282;28;20036;-57
2021/03/12 10:38:33;;;;;;;28.35;7.65;;;;;;;;;;5071517;28;20112;-58
2021/03/12 10:41:05;;;;;;;21.85;5.22;;;;;;;;;;5071898;28;20089;-58
2021/03/12 10:43:33;;;;;;;19.73;4.20;;;;;;;;;;5070466;28;20104;-58
2021/03/12 10:45:59;;;;;;;29.02;6.50;;;;;;;;;;5073186;28;20472;-58
2021/03/12 10:48:36;;;;;;;27.03;6.13;;;;;;;;;;5071209;28;20178;-59
2021/03/12 10:51:03;;;;;;;20.33;4.75;;;;;;;;;;5071936;28;20585;-56
2021/03/12 10:53:29;;;;;;;26.40;6.07;;;;;;;;;;5070567;28;20063;-56
2021/03/12 10:56:01;;;;;;;24.48;4.95;;;;;;;;;;5072545;28;20468;-56
2021/03/12 10:58:28;;;;;;;31.70;5.20;;;;;;;;;;5071958;28;20033;-57
2021/03/12 11:01:02;;;;;;;36.53;8.40;;;;;;;;;;5073008;28;20028;-58
2021/03/12 11:03:28;;;;;;;25.05;6.43;;;;;;;;;;5071005;28;20293;-58
2021/03/12 11:05:53;;;;;;;22.00;4.87;;;;;;;;;;5072595;28;20464;-58
2021/03/12 11:08:18;;;;;;;28.40;6.50;;;;;;;;;;5070477;28;20052;-59
2021/03/12 11:10:44;;;;;;;28.67;5.63;;;;;;;;;;5071670;28;20029;-59
2021/03/12 11:13:09;;;;;;;29.80;4.77;;;;;;;;;;5067900;28;20476;-59
2021/03/12 11:15:34;;;;;;;32.13;5.93;;;;;;;;;;5072771;28;20024;-58
2021/03/12 11:18:00;;;;;;;25.17;6.97;;;;;;;;;;5071499;28;20008;-59
2021/03/12 11:20:26;;;;;;;27.20;6.40;;;;;;;;;;5054163;28;20035;-59
2021/03/12 11:22:52;;;;;;;29.50;7.10;;;;;;;;;;5072170;28;20033;-59
2021/03/12 11:25:17;;;;;;;27.98;7.20;;;;;;;;;;5070522;28;20055;-59
2021/03/12 11:27:43;;;;;;;36.80;6.47;;;;;;;;;;5069885;28;20101;-59
2021/03/12 11:30:10;;;;;;;21.23;5.35;;;;;;;;;;5072135;28;20032;-59
2021/03/12 11:32:36;;;;;;;25.23;5.10;;;;;;;;;;5072029;28;20066;-59
2021/03/12 11:35:02;;;;;;;20.55;4.97;;;;;;;;;;5072213;28;20059;-58
2021/03/12 11:37:27;;;;;;;23.42;5.70;;;;;;;;;;5071388;28;20067;-59
2021/03/12 11:39:53;;;;;;;19.37;5.17;;;;;;;;;;5072258;28;20115;-59
2021/03/12 11:42:18;;;;;;;28.77;4.73;;;;;;;;;;5069506;28;20036;-60
2021/03/12 11:44:44;;;;;;;27.53;5.27;;;;;;;;;;5070735;28;20033;-58
2021/03/12 11:47:09;;;;;;;26.27;3.97;;;;;;;;;;5073426;28;20033;-59
2021/03/12 11:49:35;;;;;;;21.07;4.53;;;;;;;;;;5071678;28;20109;-58
2021/03/12 11:52:00;;;;;;;15.47;3.43;;;;;;;;;;5072467;28;20086;-58
2021/03/12 11:54:25;;;;;;;16.43;4.10;;;;;;;;;;5070946;28;20130;-58
2021/03/12 11:56:51;;;;;;;20.07;3.93;;;;;;;;;;5070718;28;20037;-58
2021/03/12 11:59:18;;;;;;;12.53;3.33;;;;;;;;;;5070888;28;20136;-59
2021/03/12 12:01:43;;;;;;;21.50;3.72;;;;;;;;;;5072193;28;20028;-61
2021/03/12 12:04:09;;;;;;;20.70;5.37;;;;;;;;;;5053366;28;20041;-59
2021/03/12 12:06:34;;;;;;;21.40;4.97;;;;;;;;;;5053376;28;20404;-58
2021/03/12 12:09:00;;;;;;;12.93;4.07;;;;;;;;;;5071774;28;20040;-58
2021/03/12 12:11:26;;;;;;;19.83;4.65;;;;;;;;;;5070297;28;20098;-58
2021/03/12 12:13:51;;;;;;;29.40;4.47;;;;;;;;;;5053093;28;20456;-58
2021/03/12 12:16:17;;;;;;;13.70;3.43;;;;;;;;;;5053407;28;20486;-59
2021/03/12 12:18:42;;;;;;;21.00;3.33;;;;;;;;;;5053685;28;20384;-58
2021/03/12 12:21:07;;;;;;;19.43;3.47;;;;;;;;;;5071373;28;20044;-58
2021/03/12 12:23:32;;;;;;;23.50;4.97;;;;;;;;;;5071157;28;20145;-57
2021/03/12 12:25:58;;;;;;;22.53;4.50;;;;;;;;;;5070129;28;20101;-59
2021/03/12 12:28:24;;;;;;;22.70;4.90;;;;;;;;;;5053317;28;20021;-59
2021/03/12 12:30:49;;;;;;;18.25;4.10;;;;;;;;;;5071385;28;20039;-57
2021/03/12 12:33:14;;;;;;;15.07;4.37;;;;;;;;;;5053681;28;20032;-59
2021/03/12 12:35:40;;;;;;;19.20;2.93;;;;;;;;;;5077394;28;20465;-58
2021/03/12 12:38:06;;;;;;;28.80;5.23;;;;;;;;;;5080260;28;20024;-58
2021/03/12 12:40:32;;;;;;;19.45;5.43;;;;;;;;;;5060369;28;20415;-58
2021/03/12 12:42:57;;;;;;;14.50;3.75;;;;;;;;;;5075526;28;20044;-56
2021/03/12 12:45:23;;;;;;;9.17;2.60;;;;;;;;;;5072512;28;20453;-58
2021/03/12 12:47:48;;;;;;;12.90;2.93;;;;;;;;;;5073092;28;20021;-59
2021/03/12 12:50:13;;;;;;;12.23;3.27;;;;;;;;;;5062366;28;20059;-58
2021/03/12 12:52:39;;;;;;;15.03;3.93;;;;;;;;;;5062487;28;20087;-59
2021/03/12 12:55:07;;;;;;;19.77;4.33;;;;;;;;;;5075016;28;20485;-58
2021/03/12 12:57:32;;;;;;;24.35;3.95;;;;;;;;;;5069103;28;20025;-59
2021/03/12 12:59:58;;;;;;;19.60;4.17;;;;;;;;;;5075238;28;20051;-61
2021/03/12 13:02:23;;;;;;;19.53;3.13;;;;;;;;;;5074443;28;20040;-60
2021/03/12 13:04:48;;;;;;;21.97;3.50;;;;;;;;;;5058047;28;20040;-59
2021/03/12 13:07:14;;;;;;;18.70;3.20;;;;;;;;;;5075488;28;20036;-58
2021/03/12 13:09:39;;;;;;;19.93;3.40;;;;;;;;;;5074609;28;20917;-58
2021/03/12 13:12:05;;;;;;;17.03;3.40;;;;;;;;;;5074019;28;20094;-58
2021/03/12 13:14:31;;;;;;;18.40;3.47;;;;;;;;;;5073396;28;20024;-58
2021/03/12 13:16:56;;;;;;;18.92;3.42;;;;;;;;;;5072246;28;20032;-56
2021/03/12 13:19:21;;;;;;;27.23;3.90;;;;;;;;;;5073335;28;20035;-58
2021/03/12 13:21:47;;;;;;;22.03;2.83;;;;;;;;;;5073938;28;20089;-56
2021/03/12 13:24:12;;;;;;;18.50;3.63;;;;;;;;;;5072872;28;20060;-56
2021/03/12 13:26:37;;;;;;;15.43;3.50;;;;;;;;;;5055665;28;20166;-57
2021/03/12 13:29:03;;;;;;;16.63;4.57;;;;;;;;;;5074131;28;20027;-57
2021/03/12 13:31:29;;;;;;;18.90;5.18;;;;;;;;;;5071995;28;20032;-56
2021/03/12 13:33:54;;;;;;;12.33;2.23;;;;;;;;;;5072734;28;20111;-55
2021/03/12 13:36:19;;;;;;;14.77;3.60;;;;;;;;;;5074470;28;20033;-56
2021/03/12 13:38:45;;;;;;;10.40;3.10;;;;;;;;;;5073733;28;20083;-57
2021/03/12 13:41:10;;;;;;;17.53;3.27;;;;;;;;;;5072792;28;20445;-57
2021/03/12 13:43:35;;;;;;;22.70;2.60;;;;;;;;;;5071476;28;20032;-58
2021/03/12 13:46:01;;;;;;;10.00;2.67;;;;;;;;;;5073153;28;20098;-58
2021/03/12 13:48:26;;;;;;;16.27;3.23;;;;;;;;;;5070783;28;20103;-59
2021/03/12 13:50:51;;;;;;;15.80;3.23;;;;;;;;;;5072493;28;20429;-56
2021/03/12 13:53:17;;;;;;;21.13;4.07;;;;;;;;;;5072605;28;20460;-56
2021/03/12 13:55:43;;;;;;;20.92;5.47;;;;;;;;;;5071917;28;20041;-57
2021/03/12 13:58:11;;;;;;;14.63;2.50;;;;;;;;;;5054426;28;20028;-57
2021/03/12 14:00:37;;;;;;;16.13;3.33;;;;;;;;;;5071835;28;20141;-56
2021/03/12 14:03:02;;;;;;;13.95;4.32;;;;;;;;;;5053524;28;20075;-55
2021/03/12 14:05:28;;;;;;;13.80;3.47;;;;;;;;;;5071478;28;20063;-57
2021/03/12 14:07:53;;;;;;;14.27;3.03;;;;;;;;;;5071556;28;20020;-56
2021/03/12 14:10:19;;;;;;;18.30;3.17;;;;;;;;;;5052943;28;20479;-57
2021/03/12 14:12:44;;;;;;;13.67;3.33;;;;;;;;;;5053433;28;20548;-57
2021/03/12 14:15:28;;;;;;;17.52;3.25;;;;;;;;;;5070652;28;20102;-57
2021/03/12 14:18:03;;;;;;;13.25;4.00;;;;;;;;;;5071795;28;20109;-57
2021/03/12 14:20:28;;;;;;;13.00;3.20;;;;;;;;;;5061895;28;20037;-56
2021/03/12 14:22:53;;;;;;;7.73;3.10;;;;;;;;;;5071792;28;20021;-57
2021/03/12 14:25:19;;;;;;;13.97;3.90;;;;;;;;;;5071376;28;20110;-57
2021/03/12 14:28:03;;;;;;;17.40;3.35;;;;;;;;;;5055863;28;20142;-56
2021/03/12 14:30:29;;;;;;;14.70;3.80;;;;;;;;;;5052735;28;20070;-57
2021/03/12 14:32:54;;;;;;;11.88;3.33;;;;;;;;;;5051040;28;20340;-57
2021/03/12 14:35:20;;;;;;;16.20;3.13;;;;;;;;;;5053470;28;20532;-54
2021/03/12 14:37:46;;;;;;;12.27;3.05;;;;;;;;;;5070637;28;20282;-56
2021/03/12 14:40:13;;;;;;;14.60;3.75;;;;;;;;;;5071357;28;20150;-55
2021/03/12 14:42:38;;;;;;;;;;;;;;;;;;5070783;28;20442;-57
2021/03/12 14:45:04;;;;;;;4.23;1.73;;;;;;;;;;5052865;28;19913;-57
2021/03/12 14:47:48;;;;;;;6.57;1.65;;;;;;;;;;5068478;28;20070;-56
2021/03/12 14:50:14;;;;;;;6.80;2.40;;;;;;;;;;5071554;28;20460;-57
2021/03/12 14:52:39;;;;;;;8.17;2.07;;;;;;;;;;5052656;28;20184;-55